sensor_id;sensor_type;location;lat;lon;timestamp;P1;durP1;ratioP1;P2;durP2;ratioP2
6145;SDS011;3104;50.348;7.620;2022-11-11T00:01:25;17.07;;;7.63;;
6145;SDS011;3104;50.348;7.620;2022-11-11T00:03:53;12.43;;;7.87;;
6145;SDS011;3104;50.348;7.620;2022-11-11T00:06:20;10.00;;;6.40;;
6145;SDS011;3104;50.348;7.620;2022-11-11T00:08:46;13.47;;;7.63;;
6145;SDS011;3104;50.348;7.620;2022-11-11T00:11:12;13.40;;;6.70;;
6145;SDS011;3104;50.348;7.620;2022-11-11T00:13:39;11.20;;;6.60;;
6145;SDS011;3104;50.348;7.620;2022-11-11T00:16:24;18.40;;;6.07;;
6145;SDS011;3104;50.348;7.620;2022-11-11T00:18:49;7.73;;;5.30;;
6145;SDS011;3104;50.348;7.620;2022-11-11T00:21:33;7.50;;;5.97;;
6145;SDS011;3104;50.348;7.620;2022-11-11T00:24:07;10.53;;;5.20;;
6145;SDS011;3104;50.348;7.620;2022-11-11T00:27:07;7.60;;;6.10;;
6145;SDS011;3104;50.348;7.620;2022-11-11T00:29:34;6.00;;;5.40;;
6145;SDS011;3104;50.348;7.620;2022-11-11T00:31:59;7.87;;;4.80;;
6145;SDS011;3104;50.348;7.620;2022-11-11T00:34:44;8.13;;;5.27;;
6145;SDS011;3104;50.348;7.620;2022-11-11T00:37:29;7.50;;;5.20;;
6145;SDS011;3104;50.348;7.620;2022-11-11T00:39:55;7.70;;;5.83;;
6145;SDS011;3104;50.348;7.620;2022-11-11T00:42:21;10.20;;;5.40;;
6145;SDS011;3104;50.348;7.620;2022-11-11T00:44:47;13.93;;;6.00;;
6145;SDS011;3104;50.348;7.620;2022-11-11T00:47:12;8.70;;;6.20;;
6145;SDS011;3104;50.348;7.620;2022-11-11T00:49:56;8.27;;;6.00;;
6145;SDS011;3104;50.348;7.620;2022-11-11T00:52:40;9.40;;;5.33;;
6145;SDS011;3104;50.348;7.620;2022-11-11T00:55:06;7.77;;;4.70;;
6145;SDS011;3104;50.348;7.620;2022-11-11T00:57:32;9.70;;;4.80;;
6145;SDS011;3104;50.348;7.620;2022-11-11T00:59:57;8.67;;;5.20;;
6145;SDS011;3104;50.348;7.620;2022-11-11T01:02:23;6.63;;;6.03;;
6145;SDS011;3104;50.348;7.620;2022-11-11T01:04:48;6.00;;;5.17;;
6145;SDS011;3104;50.348;7.620;2022-11-11T01:07:14;9.43;;;5.60;;
6145;SDS011;3104;50.348;7.620;2022-11-11T01:09:39;7.23;;;5.17;;
6145;SDS011;3104;50.348;7.620;2022-11-11T01:12:05;9.40;;;5.83;;
6145;SDS011;3104;50.348;7.620;2022-11-11T01:14:30;8.07;;;6.57;;
6145;SDS011;3104;50.348;7.620;2022-11-11T01:16:56;9.87;;;6.50;;
6145;SDS011;3104;50.348;7.620;2022-11-11T01:19:21;8.73;;;7.63;;
6145;SDS011;3104;50.348;7.620;2022-11-11T01:21:47;11.13;;;6.87;;
6145;SDS011;3104;50.348;7.620;2022-11-11T01:24:12;10.97;;;6.97;;
6145;SDS011;3104;50.348;7.620;2022-11-11T01:26:38;11.83;;;8.07;;
6145;SDS011;3104;50.348;7.620;2022-11-11T01:29:04;13.17;;;7.30;;
6145;SDS011;3104;50.348;7.620;2022-11-11T01:31:29;10.90;;;6.60;;
6145;SDS011;3104;50.348;7.620;2022-11-11T01:33:55;7.63;;;6.47;;
6145;SDS011;3104;50.348;7.620;2022-11-11T01:36:21;9.33;;;7.40;;
6145;SDS011;3104;50.348;7.620;2022-11-11T01:38:50;9.03;;;6.50;;
6145;SDS011;3104;50.348;7.620;2022-11-11T01:41:21;10.00;;;9.00;;
6145;SDS011;3104;50.348;7.620;2022-11-11T01:44:00;9.40;;;7.47;;
6145;SDS011;3104;50.348;7.620;2022-11-11T01:46:45;15.60;;;7.40;;
6145;SDS011;3104;50.348;7.620;2022-11-11T01:49:20;10.27;;;7.50;;
6145;SDS011;3104;50.348;7.620;2022-11-11T01:52:07;16.20;;;7.40;;
6145;SDS011;3104;50.348;7.620;2022-11-11T01:59:57;11.33;;;7.03;;
6145;SDS011;3104;50.348;7.620;2022-11-11T02:02:37;8.87;;;7.30;;
6145;SDS011;3104;50.348;7.620;2022-11-11T02:05:04;7.80;;;6.57;;
6145;SDS011;3104;50.348;7.620;2022-11-11T02:07:51;8.03;;;7.00;;
6145;SDS011;3104;50.348;7.620;2022-11-11T02:10:22;10.83;;;6.13;;
6145;SDS011;3104;50.348;7.620;2022-11-11T02:12:49;10.83;;;6.60;;
6145;SDS011;3104;50.348;7.620;2022-11-11T02:15:34;9.13;;;6.90;;
6145;SDS011;3104;50.348;7.620;2022-11-11T02:18:01;8.73;;;7.43;;
6145;SDS011;3104;50.348;7.620;2022-11-11T02:20:28;8.63;;;6.80;;
6145;SDS011;3104;50.348;7.620;2022-11-11T02:25:30;12.13;;;7.03;;
6145;SDS011;3104;50.348;7.620;2022-11-11T02:27:57;12.63;;;7.60;;
6145;SDS011;3104;50.348;7.620;2022-11-11T02:30:27;13.70;;;7.47;;
6145;SDS011;3104;50.348;7.620;2022-11-11T02:32:53;12.33;;;9.20;;
6145;SDS011;3104;50.348;7.620;2022-11-11T02:35:20;13.50;;;8.20;;
6145;SDS011;3104;50.348;7.620;2022-11-11T02:37:53;8.33;;;7.40;;
6145;SDS011;3104;50.348;7.620;2022-11-11T02:40:20;9.73;;;6.60;;
6145;SDS011;3104;50.348;7.620;2022-11-11T02:42:51;9.67;;;7.60;;
6145;SDS011;3104;50.348;7.620;2022-11-11T02:45:16;8.63;;;6.77;;
6145;SDS011;3104;50.348;7.620;2022-11-11T02:47:42;8.20;;;6.70;;
6145;SDS011;3104;50.348;7.620;2022-11-11T02:50:08;8.53;;;6.27;;
6145;SDS011;3104;50.348;7.620;2022-11-11T02:52:34;7.77;;;7.03;;
6145;SDS011;3104;50.348;7.620;2022-11-11T02:55:00;9.93;;;6.00;;
6145;SDS011;3104;50.348;7.620;2022-11-11T02:57:26;11.67;;;6.57;;
6145;SDS011;3104;50.348;7.620;2022-11-11T02:59:52;10.37;;;6.47;;
6145;SDS011;3104;50.348;7.620;2022-11-11T03:02:18;9.87;;;5.60;;
6145;SDS011;3104;50.348;7.620;2022-11-11T03:04:43;7.50;;;6.70;;
6145;SDS011;3104;50.348;7.620;2022-11-11T03:07:09;10.90;;;6.00;;
6145;SDS011;3104;50.348;7.620;2022-11-11T03:09:35;6.83;;;5.50;;
6145;SDS011;3104;50.348;7.620;2022-11-11T03:12:00;13.60;;;8.03;;
6145;SDS011;3104;50.348;7.620;2022-11-11T03:14:26;10.67;;;8.20;;
6145;SDS011;3104;50.348;7.620;2022-11-11T03:16:51;11.20;;;8.77;;
6145;SDS011;3104;50.348;7.620;2022-11-11T03:19:35;8.90;;;6.73;;
6145;SDS011;3104;50.348;7.620;2022-11-11T03:22:01;11.57;;;7.77;;
6145;SDS011;3104;50.348;7.620;2022-11-11T03:24:27;9.30;;;7.10;;
6145;SDS011;3104;50.348;7.620;2022-11-11T03:27:14;11.53;;;8.27;;
6145;SDS011;3104;50.348;7.620;2022-11-11T03:29:40;13.97;;;7.83;;
6145;SDS011;3104;50.348;7.620;2022-11-11T03:32:07;7.43;;;6.57;;
6145;SDS011;3104;50.348;7.620;2022-11-11T03:34:33;13.30;;;7.77;;
6145;SDS011;3104;50.348;7.620;2022-11-11T03:36:59;12.33;;;7.20;;
6145;SDS011;3104;50.348;7.620;2022-11-11T03:39:43;16.07;;;7.77;;
6145;SDS011;3104;50.348;7.620;2022-11-11T03:42:08;10.67;;;7.23;;
6145;SDS011;3104;50.348;7.620;2022-11-11T03:44:34;10.20;;;7.73;;
6145;SDS011;3104;50.348;7.620;2022-11-11T03:46:59;9.97;;;6.73;;
6145;SDS011;3104;50.348;7.620;2022-11-11T03:49:25;8.70;;;6.63;;
6145;SDS011;3104;50.348;7.620;2022-11-11T03:51:50;13.10;;;7.47;;
6145;SDS011;3104;50.348;7.620;2022-11-11T03:54:16;11.50;;;8.00;;
6145;SDS011;3104;50.348;7.620;2022-11-11T03:56:42;9.03;;;6.30;;
6145;SDS011;3104;50.348;7.620;2022-11-11T03:59:07;14.13;;;6.80;;
6145;SDS011;3104;50.348;7.620;2022-11-11T04:01:33;7.33;;;6.10;;
6145;SDS011;3104;50.348;7.620;2022-11-11T04:04:17;10.00;;;6.60;;
6145;SDS011;3104;50.348;7.620;2022-11-11T04:07:01;8.57;;;6.20;;
6145;SDS011;3104;50.348;7.620;2022-11-11T04:09:45;7.30;;;5.97;;
6145;SDS011;3104;50.348;7.620;2022-11-11T04:12:30;11.47;;;6.20;;
6145;SDS011;3104;50.348;7.620;2022-11-11T04:15:17;11.93;;;5.77;;
6145;SDS011;3104;50.348;7.620;2022-11-11T04:18:01;6.83;;;6.07;;
6145;SDS011;3104;50.348;7.620;2022-11-11T04:20:27;9.60;;;6.57;;
6145;SDS011;3104;50.348;7.620;2022-11-11T04:23:11;9.00;;;5.80;;
6145;SDS011;3104;50.348;7.620;2022-11-11T04:25:36;7.00;;;6.00;;
6145;SDS011;3104;50.348;7.620;2022-11-11T04:28:14;6.13;;;5.60;;
6145;SDS011;3104;50.348;7.620;2022-11-11T04:30:59;7.73;;;5.83;;
6145;SDS011;3104;50.348;7.620;2022-11-11T04:33:25;8.80;;;6.23;;
6145;SDS011;3104;50.348;7.620;2022-11-11T04:35:50;6.20;;;5.60;;
6145;SDS011;3104;50.348;7.620;2022-11-11T04:38:16;5.83;;;4.93;;
6145;SDS011;3104;50.348;7.620;2022-11-11T04:41:00;8.57;;;6.20;;
6145;SDS011;3104;50.348;7.620;2022-11-11T04:43:29;8.23;;;6.33;;
6145;SDS011;3104;50.348;7.620;2022-11-11T04:45:58;6.97;;;5.27;;
6145;SDS011;3104;50.348;7.620;2022-11-11T04:48:24;8.80;;;5.30;;
6145;SDS011;3104;50.348;7.620;2022-11-11T04:50:50;5.90;;;5.00;;
6145;SDS011;3104;50.348;7.620;2022-11-11T04:53:15;8.20;;;5.00;;
6145;SDS011;3104;50.348;7.620;2022-11-11T04:55:42;5.80;;;5.20;;
6145;SDS011;3104;50.348;7.620;2022-11-11T04:58:28;8.83;;;5.87;;
6145;SDS011;3104;50.348;7.620;2022-11-11T05:00:56;8.00;;;4.70;;
6145;SDS011;3104;50.348;7.620;2022-11-11T05:03:22;5.10;;;4.60;;
6145;SDS011;3104;50.348;7.620;2022-11-11T05:05:49;10.50;;;5.90;;
6145;SDS011;3104;50.348;7.620;2022-11-11T05:08:41;7.10;;;5.90;;
6145;SDS011;3104;50.348;7.620;2022-11-11T05:11:30;8.17;;;5.40;;
6145;SDS011;3104;50.348;7.620;2022-11-11T05:14:01;8.60;;;5.70;;
6145;SDS011;3104;50.348;7.620;2022-11-11T05:16:48;6.00;;;5.40;;
6145;SDS011;3104;50.348;7.620;2022-11-11T05:19:37;6.90;;;5.63;;
6145;SDS011;3104;50.348;7.620;2022-11-11T05:25:06;9.03;;;6.83;;
6145;SDS011;3104;50.348;7.620;2022-11-11T05:27:53;6.57;;;5.53;;
6145;SDS011;3104;50.348;7.620;2022-11-11T05:30:20;6.03;;;5.40;;
6145;SDS011;3104;50.348;7.620;2022-11-11T05:32:47;5.73;;;5.20;;
6145;SDS011;3104;50.348;7.620;2022-11-11T05:35:13;6.97;;;5.17;;
6145;SDS011;3104;50.348;7.620;2022-11-11T05:37:39;6.30;;;5.20;;
6145;SDS011;3104;50.348;7.620;2022-11-11T05:40:05;7.93;;;5.77;;
6145;SDS011;3104;50.348;7.620;2022-11-11T05:42:32;7.40;;;5.67;;
6145;SDS011;3104;50.348;7.620;2022-11-11T05:44:57;8.80;;;5.80;;
6145;SDS011;3104;50.348;7.620;2022-11-11T05:47:23;6.40;;;5.80;;
6145;SDS011;3104;50.348;7.620;2022-11-11T05:49:49;5.90;;;5.30;;
6145;SDS011;3104;50.348;7.620;2022-11-11T05:52:15;5.17;;;4.00;;
6145;SDS011;3104;50.348;7.620;2022-11-11T05:54:41;7.87;;;6.30;;
6145;SDS011;3104;50.348;7.620;2022-11-11T05:57:08;7.30;;;4.87;;
6145;SDS011;3104;50.348;7.620;2022-11-11T05:59:34;7.47;;;5.80;;
6145;SDS011;3104;50.348;7.620;2022-11-11T06:01:59;8.00;;;6.40;;
6145;SDS011;3104;50.348;7.620;2022-11-11T06:04:25;15.03;;;11.30;;
6145;SDS011;3104;50.348;7.620;2022-11-11T06:06:51;10.93;;;6.47;;
6145;SDS011;3104;50.348;7.620;2022-11-11T06:09:17;7.30;;;6.07;;
6145;SDS011;3104;50.348;7.620;2022-11-11T06:11:42;7.43;;;6.73;;
6145;SDS011;3104;50.348;7.620;2022-11-11T06:14:08;6.77;;;6.00;;
6145;SDS011;3104;50.348;7.620;2022-11-11T06:16:33;7.27;;;5.93;;
6145;SDS011;3104;50.348;7.620;2022-11-11T06:18:59;7.60;;;6.50;;
6145;SDS011;3104;50.348;7.620;2022-11-11T06:21:25;6.67;;;6.03;;
6145;SDS011;3104;50.348;7.620;2022-11-11T06:23:51;6.53;;;5.33;;
6145;SDS011;3104;50.348;7.620;2022-11-11T06:26:17;7.10;;;6.40;;
6145;SDS011;3104;50.348;7.620;2022-11-11T06:29:01;8.10;;;7.30;;
6145;SDS011;3104;50.348;7.620;2022-11-11T06:31:28;12.17;;;10.67;;
6145;SDS011;3104;50.348;7.620;2022-11-11T06:33:54;62.67;;;48.40;;
6145;SDS011;3104;50.348;7.620;2022-11-11T06:36:20;44.50;;;35.80;;
6145;SDS011;3104;50.348;7.620;2022-11-11T06:38:46;31.30;;;22.63;;
6145;SDS011;3104;50.348;7.620;2022-11-11T06:41:12;35.20;;;28.73;;
6145;SDS011;3104;50.348;7.620;2022-11-11T06:43:38;20.87;;;16.10;;
6145;SDS011;3104;50.348;7.620;2022-11-11T06:46:04;8.10;;;6.80;;
6145;SDS011;3104;50.348;7.620;2022-11-11T06:48:30;6.57;;;5.90;;
6145;SDS011;3104;50.348;7.620;2022-11-11T06:51:00;10.07;;;6.77;;
6145;SDS011;3104;50.348;7.620;2022-11-11T06:53:27;6.73;;;5.57;;
6145;SDS011;3104;50.348;7.620;2022-11-11T06:55:53;7.07;;;6.33;;
6145;SDS011;3104;50.348;7.620;2022-11-11T06:58:19;6.80;;;5.37;;
6145;SDS011;3104;50.348;7.620;2022-11-11T07:00:46;14.70;;;6.87;;
6145;SDS011;3104;50.348;7.620;2022-11-11T07:03:13;19.97;;;7.20;;
6145;SDS011;3104;50.348;7.620;2022-11-11T07:05:41;14.37;;;8.60;;
6145;SDS011;3104;50.348;7.620;2022-11-11T07:08:08;23.40;;;7.87;;
6145;SDS011;3104;50.348;7.620;2022-11-11T07:10:35;21.60;;;7.97;;
6145;SDS011;3104;50.348;7.620;2022-11-11T07:13:03;10.20;;;6.80;;
6145;SDS011;3104;50.348;7.620;2022-11-11T07:15:30;7.83;;;7.03;;
6145;SDS011;3104;50.348;7.620;2022-11-11T07:17:56;7.20;;;6.10;;
6145;SDS011;3104;50.348;7.620;2022-11-11T07:20:21;6.23;;;5.33;;
6145;SDS011;3104;50.348;7.620;2022-11-11T07:22:47;7.30;;;6.03;;
6145;SDS011;3104;50.348;7.620;2022-11-11T07:25:12;7.40;;;5.10;;
6145;SDS011;3104;50.348;7.620;2022-11-11T07:27:38;6.93;;;5.83;;
6145;SDS011;3104;50.348;7.620;2022-11-11T07:30:04;7.43;;;6.67;;
6145;SDS011;3104;50.348;7.620;2022-11-11T07:32:31;6.60;;;5.67;;
6145;SDS011;3104;50.348;7.620;2022-11-11T07:34:57;7.87;;;6.53;;
6145;SDS011;3104;50.348;7.620;2022-11-11T07:37:23;7.30;;;6.50;;
6145;SDS011;3104;50.348;7.620;2022-11-11T07:39:49;8.23;;;7.43;;
6145;SDS011;3104;50.348;7.620;2022-11-11T07:42:14;10.67;;;7.53;;
6145;SDS011;3104;50.348;7.620;2022-11-11T07:44:40;15.17;;;6.80;;
6145;SDS011;3104;50.348;7.620;2022-11-11T07:47:06;49.77;;;9.83;;
6145;SDS011;3104;50.348;7.620;2022-11-11T07:49:32;44.27;;;11.20;;
6145;SDS011;3104;50.348;7.620;2022-11-11T07:51:57;11.83;;;6.90;;
6145;SDS011;3104;50.348;7.620;2022-11-11T07:54:23;11.13;;;6.93;;
6145;SDS011;3104;50.348;7.620;2022-11-11T07:56:49;14.13;;;7.57;;
6145;SDS011;3104;50.348;7.620;2022-11-11T07:59:14;10.93;;;7.53;;
6145;SDS011;3104;50.348;7.620;2022-11-11T08:01:40;31.00;;;9.30;;
6145;SDS011;3104;50.348;7.620;2022-11-11T08:04:05;18.47;;;7.53;;
6145;SDS011;3104;50.348;7.620;2022-11-11T08:06:31;8.87;;;6.17;;
6145;SDS011;3104;50.348;7.620;2022-11-11T08:08:57;27.53;;;8.20;;
6145;SDS011;3104;50.348;7.620;2022-11-11T08:11:22;11.00;;;7.33;;
6145;SDS011;3104;50.348;7.620;2022-11-11T08:14:06;8.77;;;7.07;;
6145;SDS011;3104;50.348;7.620;2022-11-11T08:16:32;11.67;;;7.90;;
6145;SDS011;3104;50.348;7.620;2022-11-11T08:18:58;10.93;;;7.50;;
6145;SDS011;3104;50.348;7.620;2022-11-11T08:21:24;12.13;;;7.93;;
6145;SDS011;3104;50.348;7.620;2022-11-11T08:23:50;9.37;;;7.70;;
6145;SDS011;3104;50.348;7.620;2022-11-11T08:26:16;9.60;;;7.97;;
6145;SDS011;3104;50.348;7.620;2022-11-11T08:28:42;11.93;;;8.57;;
6145;SDS011;3104;50.348;7.620;2022-11-11T08:31:07;10.77;;;7.93;;
6145;SDS011;3104;50.348;7.620;2022-11-11T08:33:34;12.33;;;9.00;;
6145;SDS011;3104;50.348;7.620;2022-11-11T08:35:59;12.13;;;8.70;;
6145;SDS011;3104;50.348;7.620;2022-11-11T08:38:26;12.20;;;8.97;;
6145;SDS011;3104;50.348;7.620;2022-11-11T08:40:51;14.20;;;9.20;;
6145;SDS011;3104;50.348;7.620;2022-11-11T08:43:18;14.43;;;8.80;;
6145;SDS011;3104;50.348;7.620;2022-11-11T08:45:44;9.37;;;8.00;;
6145;SDS011;3104;50.348;7.620;2022-11-11T08:48:10;11.90;;;8.93;;
6145;SDS011;3104;50.348;7.620;2022-11-11T08:50:36;10.10;;;7.60;;
6145;SDS011;3104;50.348;7.620;2022-11-11T08:53:03;8.63;;;7.30;;
6145;SDS011;3104;50.348;7.620;2022-11-11T08:55:32;8.57;;;7.67;;
6145;SDS011;3104;50.348;7.620;2022-11-11T08:57:59;10.43;;;7.67;;
6145;SDS011;3104;50.348;7.620;2022-11-11T09:00:25;11.97;;;7.67;;
6145;SDS011;3104;50.348;7.620;2022-11-11T09:02:51;10.00;;;7.70;;
6145;SDS011;3104;50.348;7.620;2022-11-11T09:05:17;8.03;;;7.23;;
6145;SDS011;3104;50.348;7.620;2022-11-11T09:07:42;11.50;;;8.80;;
6145;SDS011;3104;50.348;7.620;2022-11-11T09:10:08;8.80;;;7.80;;
6145;SDS011;3104;50.348;7.620;2022-11-11T09:12:34;7.60;;;6.80;;
6145;SDS011;3104;50.348;7.620;2022-11-11T09:14:59;8.00;;;6.53;;
6145;SDS011;3104;50.348;7.620;2022-11-11T09:17:25;7.97;;;6.90;;
6145;SDS011;3104;50.348;7.620;2022-11-11T09:19:51;6.90;;;6.23;;
6145;SDS011;3104;50.348;7.620;2022-11-11T09:22:17;6.73;;;6.07;;
6145;SDS011;3104;50.348;7.620;2022-11-11T09:24:43;7.90;;;6.07;;
6145;SDS011;3104;50.348;7.620;2022-11-11T09:27:09;7.10;;;6.03;;
6145;SDS011;3104;50.348;7.620;2022-11-11T09:29:35;6.77;;;5.73;;
6145;SDS011;3104;50.348;7.620;2022-11-11T09:32:01;6.53;;;5.90;;
6145;SDS011;3104;50.348;7.620;2022-11-11T09:34:27;5.20;;;4.70;;
6145;SDS011;3104;50.348;7.620;2022-11-11T09:36:52;5.10;;;4.70;;
6145;SDS011;3104;50.348;7.620;2022-11-11T09:39:18;5.20;;;4.70;;
6145;SDS011;3104;50.348;7.620;2022-11-11T09:41:52;5.63;;;5.10;;
6145;SDS011;3104;50.348;7.620;2022-11-11T09:44:48;6.23;;;5.63;;
6145;SDS011;3104;50.348;7.620;2022-11-11T09:50:24;7.10;;;5.00;;
6145;SDS011;3104;50.348;7.620;2022-11-11T09:52:59;7.17;;;5.33;;
6145;SDS011;3104;50.348;7.620;2022-11-11T09:55:37;7.27;;;5.77;;
6145;SDS011;3104;50.348;7.620;2022-11-11T09:58:27;5.53;;;4.50;;
6145;SDS011;3104;50.348;7.620;2022-11-11T10:01:16;6.20;;;5.50;;
6145;SDS011;3104;50.348;7.620;2022-11-11T10:03:45;5.23;;;4.73;;
6145;SDS011;3104;50.348;7.620;2022-11-11T10:06:16;4.83;;;4.23;;
6145;SDS011;3104;50.348;7.620;2022-11-11T10:14:31;6.17;;;4.20;;
6145;SDS011;3104;50.348;7.620;2022-11-11T10:22:37;4.43;;;4.03;;
6145;SDS011;3104;50.348;7.620;2022-11-11T10:25:07;7.87;;;4.50;;
6145;SDS011;3104;50.348;7.620;2022-11-11T10:27:33;4.50;;;4.07;;
6145;SDS011;3104;50.348;7.620;2022-11-11T10:29:58;4.30;;;3.90;;
6145;SDS011;3104;50.348;7.620;2022-11-11T10:32:32;4.70;;;3.87;;
6145;SDS011;3104;50.348;7.620;2022-11-11T10:35:04;4.40;;;4.00;;
6145;SDS011;3104;50.348;7.620;2022-11-11T10:37:44;4.30;;;3.47;;
6145;SDS011;3104;50.348;7.620;2022-11-11T10:42:53;6.60;;;4.70;;
6145;SDS011;3104;50.348;7.620;2022-11-11T10:45:29;4.07;;;3.77;;
6145;SDS011;3104;50.348;7.620;2022-11-11T10:48:14;4.23;;;3.93;;
6145;SDS011;3104;50.348;7.620;2022-11-11T10:50:52;4.70;;;4.20;;
6145;SDS011;3104;50.348;7.620;2022-11-11T10:56:26;4.50;;;3.77;;
6145;SDS011;3104;50.348;7.620;2022-11-11T10:58:58;4.40;;;3.97;;
6145;SDS011;3104;50.348;7.620;2022-11-11T11:01:40;4.40;;;4.00;;
6145;SDS011;3104;50.348;7.620;2022-11-11T11:07:04;5.50;;;3.80;;
6145;SDS011;3104;50.348;7.620;2022-11-11T11:12:16;5.77;;;4.67;;
6145;SDS011;3104;50.348;7.620;2022-11-11T11:14:58;4.30;;;3.57;;
6145;SDS011;3104;50.348;7.620;2022-11-11T11:17:29;5.93;;;3.40;;
6145;SDS011;3104;50.348;7.620;2022-11-11T11:20:20;5.43;;;3.90;;
6145;SDS011;3104;50.348;7.620;2022-11-11T11:22:47;4.53;;;4.13;;
6145;SDS011;3104;50.348;7.620;2022-11-11T11:25:18;4.47;;;4.07;;
6145;SDS011;3104;50.348;7.620;2022-11-11T11:27:46;3.43;;;3.23;;
6145;SDS011;3104;50.348;7.620;2022-11-11T11:30:15;3.90;;;3.27;;
6145;SDS011;3104;50.348;7.620;2022-11-11T11:32:59;6.67;;;3.10;;
6145;SDS011;3104;50.348;7.620;2022-11-11T11:35:28;4.17;;;3.40;;
6145;SDS011;3104;50.348;7.620;2022-11-11T11:38:02;5.50;;;3.27;;
6145;SDS011;3104;50.348;7.620;2022-11-11T11:43:33;4.60;;;4.00;;
6145;SDS011;3104;50.348;7.620;2022-11-11T11:46:01;4.13;;;3.33;;
6145;SDS011;3104;50.348;7.620;2022-11-11T11:51:35;3.43;;;3.13;;
6145;SDS011;3104;50.348;7.620;2022-11-11T12:00:04;4.50;;;3.50;;
6145;SDS011;3104;50.348;7.620;2022-11-11T12:05:49;5.03;;;3.93;;
6145;SDS011;3104;50.348;7.620;2022-11-11T12:11:17;3.27;;;3.00;;
6145;SDS011;3104;50.348;7.620;2022-11-11T12:16:32;5.23;;;3.80;;
6145;SDS011;3104;50.348;7.620;2022-11-11T12:28:01;3.83;;;3.43;;
6145;SDS011;3104;50.348;7.620;2022-11-11T12:30:31;4.00;;;3.70;;
6145;SDS011;3104;50.348;7.620;2022-11-11T12:36:01;3.50;;;3.20;;
6145;SDS011;3104;50.348;7.620;2022-11-11T12:43:49;4.30;;;3.57;;
6145;SDS011;3104;50.348;7.620;2022-11-11T12:57:24;5.40;;;4.10;;
6145;SDS011;3104;50.348;7.620;2022-11-11T13:00:07;4.57;;;3.00;;
6145;SDS011;3104;50.348;7.620;2022-11-11T13:05:26;3.00;;;2.70;;
6145;SDS011;3104;50.348;7.620;2022-11-11T13:17:00;5.00;;;2.33;;
6145;SDS011;3104;50.348;7.620;2022-11-11T13:19:40;5.50;;;2.73;;
6145;SDS011;3104;50.348;7.620;2022-11-11T13:22:25;3.43;;;2.60;;
6145;SDS011;3104;50.348;7.620;2022-11-11T13:24:53;3.10;;;2.37;;
6145;SDS011;3104;50.348;7.620;2022-11-11T13:30:02;3.10;;;2.23;;
6145;SDS011;3104;50.348;7.620;2022-11-11T13:32:46;3.73;;;2.47;;
6145;SDS011;3104;50.348;7.620;2022-11-11T13:37:53;4.60;;;2.17;;
6145;SDS011;3104;50.348;7.620;2022-11-11T13:40:41;3.00;;;2.30;;
6145;SDS011;3104;50.348;7.620;2022-11-11T13:43:20;2.20;;;1.93;;
6145;SDS011;3104;50.348;7.620;2022-11-11T13:45:50;3.07;;;2.03;;
6145;SDS011;3104;50.348;7.620;2022-11-11T13:50:51;2.33;;;1.47;;
6145;SDS011;3104;50.348;7.620;2022-11-11T13:53:24;3.33;;;2.23;;
6145;SDS011;3104;50.348;7.620;2022-11-11T13:55:59;1.27;;;1.13;;
6145;SDS011;3104;50.348;7.620;2022-11-11T13:58:31;3.10;;;2.17;;
6145;SDS011;3104;50.348;7.620;2022-11-11T14:01:01;1.50;;;1.40;;
6145;SDS011;3104;50.348;7.620;2022-11-11T14:03:32;2.60;;;1.43;;
6145;SDS011;3104;50.348;7.620;2022-11-11T14:13:49;5.03;;;1.70;;
6145;SDS011;3104;50.348;7.620;2022-11-11T14:21:57;1.83;;;1.73;;
6145;SDS011;3104;50.348;7.620;2022-11-11T14:27:26;1.80;;;1.40;;
6145;SDS011;3104;50.348;7.620;2022-11-11T14:29:54;1.63;;;1.50;;
6145;SDS011;3104;50.348;7.620;2022-11-11T14:32:35;4.33;;;1.80;;
6145;SDS011;3104;50.348;7.620;2022-11-11T14:35:24;1.77;;;1.50;;
6145;SDS011;3104;50.348;7.620;2022-11-11T14:41:37;2.20;;;1.90;;
6145;SDS011;3104;50.348;7.620;2022-11-11T14:44:36;3.90;;;1.87;;
6145;SDS011;3104;50.348;7.620;2022-11-11T14:58:08;3.80;;;2.87;;
6145;SDS011;3104;50.348;7.620;2022-11-11T15:00:43;5.00;;;3.17;;
6145;SDS011;3104;50.348;7.620;2022-11-11T15:03:23;2.50;;;2.30;;
6145;SDS011;3104;50.348;7.620;2022-11-11T15:06:01;3.53;;;3.30;;
6145;SDS011;3104;50.348;7.620;2022-11-11T15:08:43;2.13;;;1.93;;
6145;SDS011;3104;50.348;7.620;2022-11-11T15:22:08;2.47;;;2.27;;
6145;SDS011;3104;50.348;7.620;2022-11-11T15:27:26;2.13;;;2.00;;
6145;SDS011;3104;50.348;7.620;2022-11-11T15:30:11;1.97;;;1.80;;
6145;SDS011;3104;50.348;7.620;2022-11-11T15:37:51;6.53;;;2.80;;
6145;SDS011;3104;50.348;7.620;2022-11-11T15:40:21;3.43;;;2.20;;
6145;SDS011;3104;50.348;7.620;2022-11-11T15:42:48;9.83;;;7.50;;
6145;SDS011;3104;50.348;7.620;2022-11-11T15:47:44;2.57;;;2.30;;
6145;SDS011;3104;50.348;7.620;2022-11-11T15:52:54;3.27;;;2.63;;
6145;SDS011;3104;50.348;7.620;2022-11-11T15:57:54;8.03;;;7.53;;
6145;SDS011;3104;50.348;7.620;2022-11-11T16:02:48;3.23;;;2.00;;
6145;SDS011;3104;50.348;7.620;2022-11-11T16:05:18;2.60;;;2.20;;
6145;SDS011;3104;50.348;7.620;2022-11-11T16:07:48;2.43;;;2.23;;
6145;SDS011;3104;50.348;7.620;2022-11-11T16:10:17;2.80;;;2.13;;
6145;SDS011;3104;50.348;7.620;2022-11-11T16:12:51;5.07;;;2.43;;
6145;SDS011;3104;50.348;7.620;2022-11-11T16:15:32;6.80;;;6.30;;
6145;SDS011;3104;50.348;7.620;2022-11-11T16:18:06;2.90;;;2.67;;
6145;SDS011;3104;50.348;7.620;2022-11-11T16:20:47;4.40;;;2.67;;
6145;SDS011;3104;50.348;7.620;2022-11-11T16:23:18;3.03;;;2.47;;
6145;SDS011;3104;50.348;7.620;2022-11-11T16:25:48;2.20;;;2.00;;
6145;SDS011;3104;50.348;7.620;2022-11-11T16:28:14;2.97;;;2.20;;
6145;SDS011;3104;50.348;7.620;2022-11-11T16:30:40;6.90;;;2.43;;
6145;SDS011;3104;50.348;7.620;2022-11-11T16:35:50;2.80;;;2.33;;
6145;SDS011;3104;50.348;7.620;2022-11-11T16:38:28;2.87;;;2.20;;
6145;SDS011;3104;50.348;7.620;2022-11-11T16:40:57;2.80;;;2.03;;
6145;SDS011;3104;50.348;7.620;2022-11-11T16:43:24;2.37;;;2.00;;
6145;SDS011;3104;50.348;7.620;2022-11-11T16:46:07;3.33;;;2.20;;
6145;SDS011;3104;50.348;7.620;2022-11-11T16:48:44;3.27;;;2.40;;
6145;SDS011;3104;50.348;7.620;2022-11-11T16:51:23;3.73;;;2.90;;
6145;SDS011;3104;50.348;7.620;2022-11-11T16:54:07;11.77;;;4.13;;
6145;SDS011;3104;50.348;7.620;2022-11-11T16:56:56;4.23;;;2.63;;
6145;SDS011;3104;50.348;7.620;2022-11-11T17:02:14;3.47;;;2.60;;
6145;SDS011;3104;50.348;7.620;2022-11-11T17:04:45;4.47;;;3.00;;
6145;SDS011;3104;50.348;7.620;2022-11-11T17:07:26;4.30;;;3.13;;
6145;SDS011;3104;50.348;7.620;2022-11-11T17:10:21;4.83;;;2.83;;
6145;SDS011;3104;50.348;7.620;2022-11-11T17:12:49;5.23;;;3.30;;
6145;SDS011;3104;50.348;7.620;2022-11-11T17:15:16;6.73;;;3.37;;
6145;SDS011;3104;50.348;7.620;2022-11-11T17:17:43;3.20;;;2.90;;
6145;SDS011;3104;50.348;7.620;2022-11-11T17:20:14;7.27;;;3.97;;
6145;SDS011;3104;50.348;7.620;2022-11-11T17:22:46;3.70;;;3.40;;
6145;SDS011;3104;50.348;7.620;2022-11-11T17:25:18;5.70;;;3.40;;
6145;SDS011;3104;50.348;7.620;2022-11-11T17:27:44;4.03;;;3.50;;
6145;SDS011;3104;50.348;7.620;2022-11-11T17:30:12;3.60;;;3.30;;
6145;SDS011;3104;50.348;7.620;2022-11-11T17:32:39;4.47;;;3.97;;
6145;SDS011;3104;50.348;7.620;2022-11-11T17:35:05;4.07;;;3.33;;
6145;SDS011;3104;50.348;7.620;2022-11-11T17:37:32;5.23;;;4.00;;
6145;SDS011;3104;50.348;7.620;2022-11-11T17:40:03;3.53;;;3.23;;
6145;SDS011;3104;50.348;7.620;2022-11-11T17:42:32;5.73;;;3.50;;
6145;SDS011;3104;50.348;7.620;2022-11-11T17:44:58;6.10;;;3.87;;
6145;SDS011;3104;50.348;7.620;2022-11-11T17:47:24;8.37;;;4.93;;
6145;SDS011;3104;50.348;7.620;2022-11-11T17:49:50;5.30;;;4.80;;
6145;SDS011;3104;50.348;7.620;2022-11-11T17:52:16;5.20;;;4.70;;
6145;SDS011;3104;50.348;7.620;2022-11-11T17:54:42;8.10;;;7.30;;
6145;SDS011;3104;50.348;7.620;2022-11-11T17:57:07;5.73;;;4.60;;
6145;SDS011;3104;50.348;7.620;2022-11-11T17:59:33;6.80;;;3.80;;
6145;SDS011;3104;50.348;7.620;2022-11-11T18:01:59;8.23;;;4.70;;
6145;SDS011;3104;50.348;7.620;2022-11-11T18:04:25;5.87;;;5.37;;
6145;SDS011;3104;50.348;7.620;2022-11-11T18:06:51;10.90;;;4.90;;
6145;SDS011;3104;50.348;7.620;2022-11-11T18:09:17;6.20;;;4.53;;
6145;SDS011;3104;50.348;7.620;2022-11-11T18:11:42;5.63;;;5.10;;
6145;SDS011;3104;50.348;7.620;2022-11-11T18:14:08;6.43;;;4.50;;
6145;SDS011;3104;50.348;7.620;2022-11-11T18:16:35;5.80;;;4.70;;
6145;SDS011;3104;50.348;7.620;2022-11-11T18:19:00;5.60;;;4.70;;
6145;SDS011;3104;50.348;7.620;2022-11-11T18:21:27;5.10;;;4.60;;
6145;SDS011;3104;50.348;7.620;2022-11-11T18:23:52;6.10;;;5.17;;